Moultrie, Georgia
Current Conditions -  °F | °C
As of 4:55 AM on Wednesday 26 Nov 2014 (Local Time) from KMGR Reporting Station
Drizzle Drizzle  
Wind Chill: 44°   Ceiling: 6000
Heat Index: 46°   Visibility: 10mi
Dew Point: 46°   Wind: 6mph
Humidity: 100%   Direction: 300°WNW
Pressure: 30.02"   Gusts: NA
Location:  31.18°N, 83.79°W
Report Text: KMGR 260955Z AUTO 30005KT 10SM DZ SCT006 BKN060 OVC100 08/08 A3002 RMK AO2
Loading
Personal Weather Stations






























Interactive Weather Map New forecast layout! Learn more

10-Day Weather Forecast

Advertisements
Track Severe Weather on mobile